Harry B. Settoon — WDE5658 — position and weather

sailwx.info

Track history (hours):
 
Tides and Currents Weather Stations Pressure Air Temp Water Temp Dewpoint Dewpoint Depression Visibility Wind Speed Wind Dir Waves Ship Positions

Harry B. Settoon

Owner: Settoon Towing, LLC, Houma, LA. More information available from US FCC via Universal Licensing System and Coast Guard Vessel Documentation Center.

Last reported at 2017-Feb-19 06:31 UTC. Time now 2017-Feb-19 18:44 UTC.
Position N 29°49' W 091°12'.

; draft 1.8 m.

Type: Tug. MMSI: 367369920.

Date/timePositionNaut miles runAvg speedWind from/ knotsBaromVisibWave heightAir tempDewpointWater temp
2017-Feb-19 06:31N 29°49' W 091°12'8 3.6
2017-Feb-19 04:24N 29°41' W 091°12'14 1.9
2017-Feb-18 21:19N 29°36' W 090°58'4 5.5
2017-Feb-18 20:33N 29°33' W 090°54'6 5.6
2017-Feb-18 19:33N 29°32' W 090°48'5 4.6
2017-Feb-18 18:34N 29°34' W 090°43'3 3.3
2017-Feb-18 17:33N 29°36' W 090°40'5 5.5
2017-Feb-18 16:33N 29°34' W 090°34'  
2017-Feb-15 04:33N 29°34' W 090°30'7 6.8
2017-Feb-15 03:33N 29°35' W 090°37'5 4.8
2017-Feb-15 02:33N 29°35' W 090°43'0 0.1
2017-Feb-15 01:33N 29°35' W 090°43'4 4.2
2017-Feb-15 00:33N 29°32' W 090°47'9 1.1
2017-Feb-14 16:22N 29°34' W 090°57'5 5.9
2017-Feb-14 15:32N 29°32' W 090°52'6 5.6
2017-Feb-14 14:33N 29°33' W 090°46'5 4.8
2017-Feb-14 13:33N 29°37' W 090°42'5 5.2
2017-Feb-14 12:33N 29°35' W 090°37'6 5.6
2017-Feb-14 11:24N 29°34' W 090°30'  
2017-Feb-10 13:20N 29°34' W 090°30'5 6.8
2017-Feb-10 12:33N 29°35' W 090°36'6 6.3
2017-Feb-10 11:33N 29°37' W 090°42'6 5.8
2017-Feb-10 10:33N 29°32' W 090°47'54 2.2
2017-Feb-09 09:26N 29°46' W 091°47'6 5.1
2017-Feb-09 08:21N 29°51' W 091°51'5 6.1
2017-Feb-09 07:33N 29°51' W 091°57'3 2.6
2017-Feb-09 06:34N 29°50' W 091°59'  
Track history (hours):
 
Tides and Currents Weather Stations Pressure Air Temp Water Temp Dewpoint Dewpoint Depression Visibility Wind Speed Wind Dir Waves Ship Positions

Harry B. Settoon

Owner: Settoon Towing, LLC, Houma, LA. More information available from US FCC via Universal Licensing System and Coast Guard Vessel Documentation Center.

Last reported at 2017-Feb-19 06:31 UTC. Time now 2017-Feb-19 18:44 UTC.
Position N 29°49' W 091°12'.

; draft 1.8 m.

Type: Tug. MMSI: 367369920.

Date/timePositionNaut miles runAvg speedWind from/ knotsBaromVisibWave heightAir tempDewpointWater temp
2017-Feb-19 06:31N 29°49' W 091°12'8 3.6
2017-Feb-19 04:24N 29°41' W 091°12'14 1.9
2017-Feb-18 21:19N 29°36' W 090°58'4 5.5
2017-Feb-18 20:33N 29°33' W 090°54'6 5.6
2017-Feb-18 19:33N 29°32' W 090°48'5 4.6
2017-Feb-18 18:34N 29°34' W 090°43'3 3.3
2017-Feb-18 17:33N 29°36' W 090°40'5 5.5
2017-Feb-18 16:33N 29°34' W 090°34'  
2017-Feb-15 04:33N 29°34' W 090°30'7 6.8
2017-Feb-15 03:33N 29°35' W 090°37'5 4.8
2017-Feb-15 02:33N 29°35' W 090°43'0 0.1
2017-Feb-15 01:33N 29°35' W 090°43'4 4.2
2017-Feb-15 00:33N 29°32' W 090°47'9 1.1
2017-Feb-14 16:22N 29°34' W 090°57'5 5.9
2017-Feb-14 15:32N 29°32' W 090°52'6 5.6
2017-Feb-14 14:33N 29°33' W 090°46'5 4.8
2017-Feb-14 13:33N 29°37' W 090°42'5 5.2
2017-Feb-14 12:33N 29°35' W 090°37'6 5.6
2017-Feb-14 11:24N 29°34' W 090°30'  
2017-Feb-10 13:20N 29°34' W 090°30'5 6.8
2017-Feb-10 12:33N 29°35' W 090°36'6 6.3
2017-Feb-10 11:33N 29°37' W 090°42'6 5.8
2017-Feb-10 10:33N 29°32' W 090°47'54 2.2
2017-Feb-09 09:26N 29°46' W 091°47'6 5.1
2017-Feb-09 08:21N 29°51' W 091°51'5 6.1
2017-Feb-09 07:33N 29°51' W 091°57'3 2.6
2017-Feb-09 06:34N 29°50' W 091°59'  

Dump ship's entire track history